createdAt,value
2023-06-12T00:01:30.826Z,92.10
2023-06-12T00:03:58.909Z,92.40
2023-06-12T00:06:26.125Z,92.60
2023-06-12T00:08:53.171Z,92.80
2023-06-12T00:11:20.188Z,92.80
2023-06-12T00:13:48.674Z,92.60
2023-06-12T00:16:17.936Z,92.00
2023-06-12T00:18:45.360Z,91.50
2023-06-12T00:21:13.440Z,90.00
2023-06-12T00:23:41.538Z,89.00
2023-06-12T00:26:10.271Z,88.10
2023-06-12T00:28:37.275Z,90.20
2023-06-12T00:31:04.411Z,88.20
2023-06-12T00:33:31.706Z,87.70
2023-06-12T00:35:58.669Z,88.90
2023-06-12T00:38:25.861Z,89.60
2023-06-12T00:40:52.940Z,90.60
2023-06-12T00:43:20.102Z,91.10
2023-06-12T00:45:48.847Z,91.20
2023-06-12T00:48:17.229Z,91.60
2023-06-12T00:50:45.875Z,91.80
2023-06-12T00:53:13.137Z,91.90
2023-06-12T00:55:40.157Z,91.50
2023-06-12T00:58:07.473Z,91.10
2023-06-12T01:00:34.443Z,90.70
2023-06-12T01:03:06.508Z,90.40
2023-06-12T01:05:38.109Z,88.90
2023-06-12T01:08:23.951Z,89.30
2023-06-12T01:10:58.439Z,88.60
2023-06-12T01:13:26.050Z,88.60
2023-06-12T01:15:53.032Z,85.80
2023-06-12T01:18:22.652Z,84.60
2023-06-12T01:20:52.469Z,85.00
2023-06-12T01:23:32.601Z,83.80
2023-06-12T01:26:27.663Z,83.40
2023-06-12T01:29:39.509Z,82.50
2023-06-12T01:32:17.195Z,83.00
2023-06-12T01:34:55.537Z,83.60
2023-06-12T01:37:35.122Z,83.40
2023-06-12T01:40:07.056Z,81.40
2023-06-12T01:42:35.084Z,81.50
2023-06-12T01:45:02.194Z,79.60
2023-06-12T01:47:29.355Z,78.90
2023-06-12T01:49:56.497Z,81.10
2023-06-12T01:52:23.411Z,80.60
2023-06-12T01:54:50.796Z,81.70
2023-06-12T01:57:21.677Z,82.20
2023-06-12T01:59:49.520Z,80.10
2023-06-12T02:02:19.398Z,81.20
2023-06-12T02:04:46.371Z,79.90
2023-06-12T02:07:13.786Z,79.00
2023-06-12T02:09:40.857Z,78.80
2023-06-12T02:12:09.373Z,78.60
2023-06-12T02:14:36.525Z,77.60
2023-06-12T02:17:03.885Z,76.90
2023-06-12T02:19:30.883Z,77.40
2023-06-12T02:21:58.321Z,76.70
2023-06-12T02:24:31.174Z,76.60
2023-06-12T02:26:58.651Z,76.60
2023-06-12T02:29:26.311Z,77.30
2023-06-12T02:31:53.408Z,76.80
2023-06-12T02:34:20.581Z,76.40
2023-06-12T02:36:48.453Z,77.00
2023-06-12T02:39:16.065Z,76.50
2023-06-12T02:41:51.049Z,76.00
2023-06-12T02:44:18.333Z,76.10
2023-06-12T02:46:56.381Z,76.50
2023-06-12T02:49:25.796Z,76.60
2023-06-12T02:51:53.092Z,76.50
2023-06-12T02:54:22.679Z,77.00
2023-06-12T02:56:49.907Z,77.40
2023-06-12T02:59:21.204Z,78.00
2023-06-12T03:01:48.374Z,77.60
2023-06-12T03:04:20.297Z,78.20
2023-06-12T03:06:48.869Z,78.50
2023-06-12T03:09:19.675Z,79.00
2023-06-12T03:11:49.202Z,78.30
2023-06-12T03:14:17.808Z,78.70
2023-06-12T03:16:44.788Z,78.50
2023-06-12T03:19:11.756Z,78.40
2023-06-12T03:21:38.696Z,77.40
2023-06-12T03:24:06.433Z,77.20
2023-06-12T03:26:35.286Z,76.10
2023-06-12T03:29:02.438Z,75.80
2023-06-12T03:31:30.130Z,76.10
2023-06-12T03:33:57.779Z,74.80
2023-06-12T03:36:26.502Z,75.80
2023-06-12T03:38:54.001Z,73.20
2023-06-12T03:41:22.875Z,73.00
2023-06-12T03:43:50.244Z,71.80
2023-06-12T03:46:17.781Z,70.50
2023-06-12T03:48:45.217Z,69.20
2023-06-12T03:51:12.466Z,68.50
2023-06-12T03:53:40.398Z,68.50
2023-06-12T03:56:08.118Z,67.00
2023-06-12T03:58:35.988Z,67.50
2023-06-12T04:01:03.100Z,66.90
2023-06-12T04:03:30.419Z,66.10
2023-06-12T04:05:57.420Z,64.70
2023-06-12T04:08:24.819Z,64.40
2023-06-12T04:10:52.634Z,65.40
2023-06-12T04:13:19.651Z,64.90
2023-06-12T04:15:48.557Z,64.20
2023-06-12T04:18:15.788Z,64.60
2023-06-12T04:20:42.776Z,65.00
2023-06-12T04:23:12.726Z,64.10
2023-06-12T04:25:44.246Z,62.40
2023-06-12T04:28:18.285Z,61.70
2023-06-12T04:30:46.822Z,62.20
2023-06-12T04:33:13.839Z,61.30
2023-06-12T04:35:40.858Z,61.00
2023-06-12T04:38:07.815Z,60.90
2023-06-12T04:40:37.895Z,60.20
2023-06-12T04:43:08.118Z,60.90
2023-06-12T04:45:35.883Z,59.50
2023-06-12T04:48:03.813Z,58.80
2023-06-12T04:50:33.466Z,58.10
2023-06-12T04:53:00.687Z,56.30
2023-06-12T04:55:30.228Z,54.10
2023-06-12T04:57:59.269Z,54.70
2023-06-12T05:00:28.071Z,54.40
2023-06-12T05:02:55.229Z,53.80
2023-06-12T05:05:22.531Z,51.90
2023-06-12T05:07:49.707Z,51.40
2023-06-12T05:10:17.036Z,50.90
2023-06-12T05:12:44.146Z,51.50
2023-06-12T05:15:11.379Z,51.90
2023-06-12T05:17:39.160Z,51.20
2023-06-12T05:20:10.174Z,48.60
2023-06-12T05:22:37.951Z,47.70
2023-06-12T05:25:05.663Z,46.80
2023-06-12T05:27:32.954Z,46.60
2023-06-12T05:30:01.665Z,46.10
2023-06-12T05:32:28.620Z,46.70
2023-06-12T05:34:55.842Z,44.80
2023-06-12T05:37:23.038Z,43.90
2023-06-12T05:39:50.144Z,43.70
2023-06-12T05:42:17.287Z,43.60
2023-06-12T05:44:44.246Z,42.70
2023-06-12T05:47:11.731Z,43.60
2023-06-12T05:49:39.097Z,42.70
2023-06-12T05:52:09.307Z,42.50
2023-06-12T05:54:36.390Z,41.80
2023-06-12T05:57:04.247Z,39.70
2023-06-12T05:59:31.209Z,39.70
2023-06-12T06:01:58.331Z,39.50
2023-06-12T06:04:25.672Z,38.50
2023-06-12T06:06:54.813Z,38.40
2023-06-12T06:09:22.254Z,38.70
2023-06-12T06:11:50.792Z,38.10
2023-06-12T06:14:19.469Z,37.00
2023-06-12T06:16:54.911Z,37.00
2023-06-12T06:19:22.221Z,37.30
2023-06-12T06:21:49.235Z,37.50
2023-06-12T06:24:16.706Z,36.30
2023-06-12T06:26:43.808Z,34.80
2023-06-12T06:29:13.443Z,34.90
2023-06-12T06:31:42.039Z,35.10
2023-06-12T06:34:10.113Z,34.80
2023-06-12T06:36:38.595Z,34.80
2023-06-12T06:39:05.630Z,34.50
2023-06-12T06:41:32.584Z,34.60
2023-06-12T06:43:59.574Z,34.90
2023-06-12T06:46:26.742Z,33.70
2023-06-12T06:48:53.742Z,32.70
2023-06-12T06:51:21.274Z,33.00
2023-06-12T06:53:48.524Z,32.20
2023-06-12T06:56:15.667Z,30.80
2023-06-12T06:58:42.785Z,29.30
2023-06-12T07:01:09.742Z,27.30
2023-06-12T07:03:36.782Z,25.60
2023-06-12T07:06:05.417Z,23.70
2023-06-12T07:08:32.314Z,22.50
2023-06-12T07:10:59.343Z,21.00
2023-06-12T07:13:26.325Z,20.30
2023-06-12T07:15:53.944Z,18.40
2023-06-12T07:18:21.124Z,18.90
2023-06-12T07:20:48.159Z,17.80
2023-06-12T07:23:15.106Z,18.10
2023-06-12T07:25:42.048Z,17.60
2023-06-12T07:28:09.111Z,17.30
2023-06-12T07:30:36.285Z,17.20
2023-06-12T07:33:03.671Z,15.20
2023-06-12T07:35:30.717Z,15.10
2023-06-12T07:37:57.614Z,15.40
2023-06-12T07:40:24.703Z,15.00
2023-06-12T07:42:51.690Z,14.30
2023-06-12T07:45:18.683Z,15.00
2023-06-12T07:47:47.435Z,14.10
2023-06-12T07:50:16.784Z,14.90
2023-06-12T07:52:44.206Z,14.70
2023-06-12T07:55:11.756Z,14.90
2023-06-12T07:57:39.024Z,15.20
2023-06-12T08:00:07.089Z,14.30
2023-06-12T08:02:34.862Z,14.60
2023-06-12T08:05:02.234Z,13.00
2023-06-12T08:07:29.257Z,12.40
2023-06-12T08:09:56.335Z,12.60
2023-06-12T08:12:23.970Z,13.90
2023-06-12T08:14:52.884Z,12.90
2023-06-12T08:17:22.343Z,12.80
2023-06-12T08:19:49.920Z,12.60
2023-06-12T08:22:17.141Z,10.50
2023-06-12T08:24:45.447Z,11.00
2023-06-12T08:27:12.890Z,11.10
2023-06-12T08:29:41.358Z,11.10
2023-06-12T08:32:09.566Z,11.10
2023-06-12T08:34:36.628Z,11.10
2023-06-12T08:37:03.774Z,10.40
2023-06-12T08:39:30.910Z,10.70
2023-06-12T08:42:09.138Z,10.40
2023-06-12T08:44:36.739Z,10.80
2023-06-12T08:47:05.042Z,10.50
2023-06-12T08:49:32.964Z,10.30
2023-06-12T08:52:02.193Z,10.00
2023-06-12T08:54:30.329Z,10.40
2023-06-12T08:56:58.751Z,10.10
2023-06-12T08:59:26.359Z,9.70
2023-06-12T09:02:13.144Z,8.60
2023-06-12T09:04:48.040Z,8.90
2023-06-12T09:07:19.496Z,8.30
2023-06-12T09:09:47.978Z,8.50
2023-06-12T09:12:16.678Z,8.00
2023-06-12T09:14:46.231Z,8.20
2023-06-12T09:17:13.615Z,9.30
2023-06-12T09:19:49.345Z,9.10
2023-06-12T09:22:16.425Z,9.00
2023-06-12T09:24:43.640Z,9.50
2023-06-12T09:27:12.358Z,10.10
2023-06-12T09:29:43.534Z,10.10
2023-06-12T09:32:14.668Z,11.90
2023-06-12T09:34:51.629Z,8.80
2023-06-12T09:37:18.952Z,9.10
2023-06-12T09:39:45.900Z,8.70
2023-06-12T09:42:14.944Z,8.40
2023-06-12T09:44:42.221Z,8.70
2023-06-12T09:47:12.103Z,8.90
2023-06-12T09:49:39.489Z,9.90
2023-06-12T09:52:07.328Z,9.80
2023-06-12T09:54:35.255Z,9.50
2023-06-12T09:57:07.575Z,10.20
2023-06-12T09:59:37.996Z,9.90
2023-06-12T10:02:17.550Z,9.60
2023-06-12T10:04:55.667Z,9.40
2023-06-12T10:07:29.857Z,8.40
2023-06-12T10:09:57.588Z,8.70
2023-06-12T10:12:26.044Z,8.60
2023-06-12T10:14:54.133Z,8.90
2023-06-12T10:17:23.483Z,9.70
2023-06-12T10:19:53.623Z,9.20
2023-06-12T10:22:20.573Z,10.10
2023-06-12T10:24:48.404Z,10.80
2023-06-12T10:27:16.786Z,10.50
2023-06-12T10:29:44.042Z,9.50
2023-06-12T10:32:12.210Z,9.80
2023-06-12T10:34:49.576Z,10.30
2023-06-12T10:37:41.424Z,10.10
2023-06-12T10:40:14.352Z,9.60
2023-06-12T10:42:43.698Z,9.60
2023-06-12T10:45:26.408Z,10.00
2023-06-12T10:48:09.063Z,9.60
2023-06-12T10:50:48.557Z,10.10
2023-06-12T10:53:20.573Z,10.20
2023-06-12T10:55:47.665Z,10.40
2023-06-12T10:58:16.747Z,10.40
2023-06-12T11:00:48.677Z,12.70
2023-06-12T11:03:23.883Z,13.60
2023-06-12T11:06:01.249Z,14.00
2023-06-12T11:08:29.433Z,12.00
2023-06-12T11:10:56.394Z,12.50
2023-06-12T11:13:27.284Z,14.00
2023-06-12T11:15:55.103Z,13.90
2023-06-12T11:18:22.183Z,13.50
2023-06-12T11:20:53.490Z,13.10
2023-06-12T11:23:24.250Z,12.60
2023-06-12T11:25:54.342Z,12.40
2023-06-12T11:28:21.848Z,12.20
2023-06-12T11:31:07.588Z,13.20
2023-06-12T11:33:38.211Z,13.50
2023-06-12T11:36:06.096Z,14.10
2023-06-12T11:41:04.373Z,15.90
2023-06-12T11:43:31.962Z,15.50
2023-06-12T11:46:04.331Z,15.40
2023-06-12T11:51:04.689Z,15.00
2023-06-12T11:53:34.260Z,15.00
2023-06-12T11:58:36.086Z,15.90
2023-06-12T12:01:14.996Z,16.10
2023-06-12T12:03:45.744Z,16.40
2023-06-12T12:06:14.497Z,17.40
2023-06-12T12:08:45.593Z,17.90
2023-06-12T12:11:33.098Z,18.40
2023-06-12T12:14:05.287Z,18.80
2023-06-12T12:16:43.456Z,18.60
2023-06-12T12:19:27.819Z,17.90
2023-06-12T12:21:56.165Z,18.30
2023-06-12T12:24:24.810Z,20.30
2023-06-12T12:26:53.700Z,20.70
2023-06-12T12:29:22.633Z,19.00
2023-06-12T12:31:49.979Z,18.90
2023-06-12T12:34:18.555Z,20.20
2023-06-12T12:36:48.759Z,19.50
2023-06-12T12:39:17.048Z,17.70
2023-06-12T12:41:44.142Z,17.30
2023-06-12T12:44:11.190Z,18.60
2023-06-12T12:46:38.646Z,19.90
2023-06-12T12:49:09.248Z,21.60
2023-06-12T12:51:37.335Z,21.40
2023-06-12T12:54:04.329Z,21.70
2023-06-12T12:56:31.266Z,21.00
2023-06-12T12:58:58.261Z,21.80
2023-06-12T13:01:25.306Z,22.20
2023-06-12T13:03:56.620Z,22.00
2023-06-12T13:06:25.187Z,22.50
2023-06-12T13:08:52.076Z,21.90
2023-06-12T13:11:19.082Z,21.60
2023-06-12T13:13:46.369Z,22.80
2023-06-12T13:16:13.720Z,22.70
2023-06-12T13:18:41.930Z,23.90
2023-06-12T13:21:10.735Z,24.00
2023-06-12T13:23:37.781Z,24.00
2023-06-12T13:26:04.820Z,23.10
2023-06-12T13:28:32.023Z,23.10
2023-06-12T13:30:59.065Z,23.30
2023-06-12T13:33:26.312Z,23.70
2023-06-12T13:35:53.237Z,23.40
2023-06-12T13:38:20.252Z,22.50
2023-06-12T13:40:50.233Z,22.60
2023-06-12T13:43:18.139Z,23.00
2023-06-12T13:45:45.198Z,22.50
2023-06-12T13:48:12.758Z,22.40
2023-06-12T13:50:39.845Z,22.80
2023-06-12T13:53:06.857Z,21.90
2023-06-12T13:55:33.830Z,21.90
2023-06-12T13:58:07.757Z,22.20
2023-06-12T14:00:34.959Z,22.60
2023-06-12T14:03:02.534Z,22.70
2023-06-12T14:05:29.643Z,22.50
2023-06-12T14:07:56.695Z,22.70
2023-06-12T14:10:24.616Z,22.40
2023-06-12T14:12:51.685Z,22.20
2023-06-12T14:15:18.723Z,22.10
2023-06-12T14:17:45.682Z,22.00
2023-06-12T14:20:13.364Z,21.90
2023-06-12T14:22:41.945Z,21.80
2023-06-12T14:25:09.184Z,21.60
2023-06-12T14:27:36.919Z,21.90
2023-06-12T14:30:04.271Z,22.00
2023-06-12T14:32:31.440Z,21.80
2023-06-12T14:34:58.675Z,22.00
2023-06-12T14:37:25.968Z,22.10
2023-06-12T14:39:52.994Z,22.80
2023-06-12T14:42:19.946Z,22.80
2023-06-12T14:44:46.953Z,22.50
2023-06-12T14:47:13.867Z,22.10
2023-06-12T14:49:42.242Z,23.00
2023-06-12T14:52:23.549Z,22.80
2023-06-12T14:54:56.274Z,24.10
2023-06-12T14:57:23.497Z,23.70
2023-06-12T14:59:50.629Z,23.60
2023-06-12T15:02:18.504Z,23.90
2023-06-12T15:04:45.745Z,24.40
2023-06-12T15:07:12.756Z,24.10
2023-06-12T15:09:39.705Z,23.70
2023-06-12T15:12:07.083Z,23.60
2023-06-12T15:14:34.087Z,23.90
2023-06-12T15:17:01.139Z,23.80
2023-06-12T15:19:28.204Z,23.80
2023-06-12T15:21:55.142Z,23.70
2023-06-12T15:24:23.531Z,23.80
2023-06-12T15:26:51.451Z,24.20
2023-06-12T15:29:18.569Z,24.10
2023-06-12T15:31:48.125Z,24.00
2023-06-12T15:34:15.361Z,24.00
2023-06-12T15:36:43.204Z,24.30
2023-06-12T15:39:11.464Z,24.30
2023-06-12T15:41:39.469Z,24.20
2023-06-12T15:44:07.302Z,24.90
2023-06-12T15:46:34.545Z,24.30
2023-06-12T15:49:03.878Z,24.50
2023-06-12T15:51:31.001Z,24.70
2023-06-12T15:53:58.727Z,24.70
2023-06-12T15:56:28.198Z,25.20
2023-06-12T15:58:55.351Z,25.30
2023-06-12T16:01:22.432Z,25.70
2023-06-12T16:03:49.575Z,26.10
2023-06-12T16:06:16.853Z,26.30
2023-06-12T16:08:43.806Z,26.40
2023-06-12T16:11:10.875Z,26.60
2023-06-12T16:13:37.864Z,26.10
2023-06-12T16:16:05.078Z,27.10
2023-06-12T16:18:32.164Z,27.20
2023-06-12T16:21:00.189Z,27.20
2023-06-12T16:23:27.206Z,27.10
2023-06-12T16:25:54.169Z,27.00
2023-06-12T16:28:21.083Z,26.90
2023-06-12T16:30:48.049Z,27.20
2023-06-12T16:33:15.231Z,27.00
2023-06-12T16:35:42.256Z,27.10
2023-06-12T16:38:09.363Z,27.50
2023-06-12T16:40:36.685Z,27.80
2023-06-12T16:43:03.629Z,27.30
2023-06-12T16:45:30.549Z,27.70
2023-06-12T16:47:58.028Z,27.80
2023-06-12T16:50:26.613Z,27.50
2023-06-12T16:52:53.659Z,27.80
2023-06-12T16:55:20.895Z,28.20
2023-06-12T16:57:47.866Z,28.40
2023-06-12T17:00:17.799Z,27.90
2023-06-12T17:02:49.791Z,28.70
2023-06-12T17:05:17.480Z,29.10
2023-06-12T17:07:45.249Z,28.90
2023-06-12T17:10:12.750Z,28.20
2023-06-12T17:12:40.669Z,29.50
2023-06-12T17:15:08.172Z,29.80
2023-06-12T17:17:35.330Z,29.70
2023-06-12T17:20:02.338Z,30.20
2023-06-12T17:22:29.868Z,30.10
2023-06-12T17:24:56.979Z,31.20
2023-06-12T17:27:23.982Z,31.60
2023-06-12T17:29:52.187Z,32.00
2023-06-12T17:32:19.372Z,32.40
2023-06-12T17:34:46.595Z,32.60
2023-06-12T17:37:14.428Z,32.70
2023-06-12T17:39:41.370Z,32.40
2023-06-12T17:42:08.573Z,33.10
2023-06-12T17:44:41.774Z,32.30
2023-06-12T17:47:08.787Z,33.10
2023-06-12T17:49:36.179Z,32.50
2023-06-12T17:52:03.232Z,33.60
2023-06-12T17:54:30.288Z,32.90
2023-06-12T17:56:59.306Z,32.90
2023-06-12T17:59:26.439Z,33.80
2023-06-12T18:01:53.557Z,33.90
2023-06-12T18:04:20.728Z,34.30
2023-06-12T18:06:47.681Z,34.70
2023-06-12T18:09:14.969Z,34.80
2023-06-12T18:11:42.077Z,35.10
2023-06-12T18:14:10.591Z,36.20
2023-06-12T18:16:37.765Z,36.10
2023-06-12T18:19:04.878Z,37.00
2023-06-12T18:21:32.204Z,36.90
2023-06-12T18:23:59.873Z,37.60
2023-06-12T18:26:26.797Z,37.50
2023-06-12T18:28:53.745Z,38.30
2023-06-12T18:31:21.294Z,38.80
2023-06-12T18:33:48.476Z,39.30
2023-06-12T18:36:19.052Z,39.40
2023-06-12T18:38:46.826Z,39.90
2023-06-12T18:41:14.229Z,40.30
2023-06-12T18:43:41.209Z,39.90
2023-06-12T18:46:08.423Z,41.00
2023-06-12T18:48:35.430Z,40.80
2023-06-12T18:51:02.690Z,42.30
2023-06-12T18:53:29.696Z,41.50
2023-06-12T18:55:56.654Z,41.60
2023-06-12T18:58:24.248Z,42.40
2023-06-12T19:00:52.762Z,42.70
2023-06-12T19:03:19.779Z,42.90
2023-06-12T19:05:46.901Z,43.80
2023-06-12T19:08:13.911Z,44.10
2023-06-12T19:10:40.925Z,44.90
2023-06-12T19:13:08.064Z,45.70
2023-06-12T19:15:36.277Z,46.30
2023-06-12T19:18:05.000Z,46.80
2023-06-12T19:20:34.529Z,47.60
2023-06-12T19:23:04.241Z,48.60
2023-06-12T19:25:31.229Z,48.50
2023-06-12T19:27:59.878Z,49.30
2023-06-12T19:30:27.082Z,49.90
2023-06-12T19:32:55.167Z,50.00
2023-06-12T19:35:22.824Z,50.90
2023-06-12T19:37:49.867Z,51.20
2023-06-12T19:40:16.814Z,51.80
2023-06-12T19:42:44.825Z,53.00
2023-06-12T19:45:13.630Z,54.00
2023-06-12T19:47:41.816Z,55.50
2023-06-12T19:50:09.283Z,55.30
2023-06-12T19:52:37.623Z,56.40
2023-06-12T19:55:04.838Z,56.90
2023-06-12T19:57:31.906Z,58.40
2023-06-12T19:59:58.840Z,58.90
2023-06-12T20:02:26.085Z,57.80
2023-06-12T20:04:53.236Z,60.30
2023-06-12T20:07:20.200Z,61.20
2023-06-12T20:09:48.498Z,61.80
2023-06-12T20:12:15.458Z,62.20
2023-06-12T20:14:42.379Z,63.00
2023-06-12T20:17:09.385Z,63.30
2023-06-12T20:19:36.382Z,64.90
2023-06-12T20:22:03.466Z,64.80
2023-06-12T20:24:35.187Z,64.20
2023-06-12T20:27:02.422Z,64.60
2023-06-12T20:29:36.009Z,64.10
2023-06-12T20:32:03.865Z,64.00
2023-06-12T20:34:31.306Z,63.50
2023-06-12T20:36:58.549Z,63.80
2023-06-12T20:39:25.645Z,64.10
2023-06-12T20:41:52.578Z,64.20
2023-06-12T20:44:19.586Z,65.20
2023-06-12T20:46:46.510Z,66.50
2023-06-12T20:49:13.448Z,67.30
2023-06-12T20:51:40.410Z,67.60
2023-06-12T20:54:07.748Z,68.30
2023-06-12T20:56:34.688Z,69.00
2023-06-12T20:59:01.636Z,69.40
2023-06-12T21:01:28.710Z,69.40
2023-06-12T21:03:55.796Z,69.80
2023-06-12T21:06:22.759Z,69.70
2023-06-12T21:08:57.962Z,69.50
2023-06-12T21:11:36.143Z,68.70
2023-06-12T21:14:13.659Z,68.90
2023-06-12T21:16:40.985Z,67.80
2023-06-12T21:19:08.270Z,66.40
2023-06-12T21:21:35.672Z,64.80
2023-06-12T21:24:03.559Z,63.30
2023-06-12T21:26:31.172Z,61.80
2023-06-12T21:28:58.877Z,63.20
2023-06-12T21:31:31.056Z,64.30
2023-06-12T21:33:58.914Z,63.90
2023-06-12T21:36:26.115Z,64.30
2023-06-12T21:38:53.037Z,66.50
2023-06-12T21:41:20.336Z,67.70
2023-06-12T21:43:47.994Z,68.90
2023-06-12T21:46:15.049Z,66.70
2023-06-12T21:48:42.253Z,67.30
2023-06-12T21:51:09.300Z,67.50
2023-06-12T21:53:36.259Z,69.10
2023-06-12T21:56:03.349Z,67.20
2023-06-12T21:58:32.012Z,68.00
2023-06-12T22:01:11.574Z,68.50
2023-06-12T22:03:38.570Z,67.50
2023-06-12T22:06:05.594Z,68.00
2023-06-12T22:08:33.125Z,68.30
2023-06-12T22:11:00.172Z,66.70
2023-06-12T22:13:27.875Z,66.90
2023-06-12T22:15:54.942Z,67.20
2023-06-12T22:18:22.120Z,64.10
2023-06-12T22:20:49.230Z,64.70
2023-06-12T22:23:16.250Z,62.00
2023-06-12T22:25:43.300Z,62.10
2023-06-12T22:28:10.389Z,64.50
2023-06-12T22:30:47.616Z,63.00
2023-06-12T22:33:23.598Z,62.80
2023-06-12T22:35:50.874Z,60.50
2023-06-12T22:38:18.221Z,59.70
2023-06-12T22:40:45.749Z,61.00
2023-06-12T22:43:14.371Z,62.00
2023-06-12T22:45:41.489Z,59.70
2023-06-12T22:48:09.720Z,60.80
2023-06-12T22:50:37.395Z,62.20
2023-06-12T22:53:06.160Z,64.10
2023-06-12T22:55:34.263Z,63.90
2023-06-12T22:58:01.216Z,63.80
2023-06-12T23:00:28.159Z,64.90
2023-06-12T23:02:55.137Z,66.10
2023-06-12T23:05:22.727Z,65.10
2023-06-12T23:07:50.386Z,66.20
2023-06-12T23:10:17.484Z,65.60
2023-06-12T23:12:44.493Z,64.10
2023-06-12T23:15:12.104Z,64.30
2023-06-12T23:17:40.628Z,64.10
2023-06-12T23:20:11.233Z,64.00
2023-06-12T23:22:38.925Z,62.90
2023-06-12T23:25:06.744Z,62.50
2023-06-12T23:27:36.810Z,62.60
2023-06-12T23:30:04.097Z,63.70
2023-06-12T23:32:32.585Z,61.50
2023-06-12T23:35:00.181Z,62.90
2023-06-12T23:37:27.235Z,63.40
2023-06-12T23:39:55.056Z,64.90
2023-06-12T23:42:22.778Z,66.00
2023-06-12T23:44:49.884Z,67.10
2023-06-12T23:47:17.405Z,65.80
2023-06-12T23:49:44.390Z,63.30
2023-06-12T23:52:11.442Z,64.10
2023-06-12T23:54:38.751Z,64.10
2023-06-12T23:57:06.727Z,63.80
2023-06-12T23:59:33.756Z,63.70
